sensor_id;sensor_type;location;lat;lon;timestamp;temperature;humidity
35409;DHT22;34503;45.296;9.514;2023-09-12T00:00:06;26.40;74.40
35409;DHT22;34503;45.296;9.514;2023-09-12T00:00:27;26.40;74.30
35409;DHT22;34503;45.296;9.514;2023-09-12T00:00:42;26.40;74.50
35409;DHT22;34503;45.296;9.514;2023-09-12T00:00:57;26.40;74.40
35409;DHT22;34503;45.296;9.514;2023-09-12T00:01:12;26.40;74.50
35409;DHT22;34503;45.296;9.514;2023-09-12T00:01:27;26.40;74.50
35409;DHT22;34503;45.296;9.514;2023-09-12T00:01:42;26.40;74.60
35409;DHT22;34503;45.296;9.514;2023-09-12T00:01:57;26.40;75.10
35409;DHT22;34503;45.296;9.514;2023-09-12T00:02:12;26.40;74.60
35409;DHT22;34503;45.296;9.514;2023-09-12T00:02:26;26.40;74.70
35409;DHT22;34503;45.296;9.514;2023-09-12T00:02:43;26.40;74.70
35409;DHT22;34503;45.296;9.514;2023-09-12T00:02:58;26.40;74.90
35409;DHT22;34503;45.296;9.514;2023-09-12T00:03:13;26.40;74.90
35409;DHT22;34503;45.296;9.514;2023-09-12T00:03:28;26.40;74.90
35409;DHT22;34503;45.296;9.514;2023-09-12T00:03:42;26.40;75.00
35409;DHT22;34503;45.296;9.514;2023-09-12T00:03:58;26.40;74.80
35409;DHT22;34503;45.296;9.514;2023-09-12T00:04:16;26.40;74.80
35409;DHT22;34503;45.296;9.514;2023-09-12T00:04:31;26.40;74.90
35409;DHT22;34503;45.296;9.514;2023-09-12T00:04:46;26.40;75.00
35409;DHT22;34503;45.296;9.514;2023-09-12T00:05:01;26.40;74.90
35409;DHT22;34503;45.296;9.514;2023-09-12T00:05:15;26.40;75.00
35409;DHT22;34503;45.296;9.514;2023-09-12T00:05:31;26.40;75.20
35409;DHT22;34503;45.296;9.514;2023-09-12T00:05:52;26.40;75.20
35409;DHT22;34503;45.296;9.514;2023-09-12T00:06:13;26.40;75.30
35409;DHT22;34503;45.296;9.514;2023-09-12T00:06:28;26.40;75.20
35409;DHT22;34503;45.296;9.514;2023-09-12T00:06:43;26.40;75.40
35409;DHT22;34503;45.296;9.514;2023-09-12T00:06:58;26.40;75.40
35409;DHT22;34503;45.296;9.514;2023-09-12T00:07:12;26.40;75.30
35409;DHT22;34503;45.296;9.514;2023-09-12T00:07:27;26.40;75.50
35409;DHT22;34503;45.296;9.514;2023-09-12T00:07:42;26.40;76.00
35409;DHT22;34503;45.296;9.514;2023-09-12T00:07:57;26.40;76.10
35409;DHT22;34503;45.296;9.514;2023-09-12T00:08:12;26.40;76.10
35409;DHT22;34503;45.296;9.514;2023-09-12T00:08:26;26.40;76.20
35409;DHT22;34503;45.296;9.514;2023-09-12T00:08:41;26.40;76.70
35409;DHT22;34503;45.296;9.514;2023-09-12T00:08:56;26.40;76.50
35409;DHT22;34503;45.296;9.514;2023-09-12T00:09:11;26.40;76.30
35409;DHT22;34503;45.296;9.514;2023-09-12T00:09:26;26.40;76.10
35409;DHT22;34503;45.296;9.514;2023-09-12T00:09:42;26.40;76.20
35409;DHT22;34503;45.296;9.514;2023-09-12T00:09:57;26.40;76.00
35409;DHT22;34503;45.296;9.514;2023-09-12T00:10:12;26.40;76.10
35409;DHT22;34503;45.296;9.514;2023-09-12T00:10:27;26.40;76.20
35409;DHT22;34503;45.296;9.514;2023-09-12T00:10:42;26.40;76.30
35409;DHT22;34503;45.296;9.514;2023-09-12T00:11:15;26.40;76.10
35409;DHT22;34503;45.296;9.514;2023-09-12T00:11:30;26.40;76.60
35409;DHT22;34503;45.296;9.514;2023-09-12T00:11:44;26.40;76.50
35409;DHT22;34503;45.296;9.514;2023-09-12T00:11:59;26.40;76.50
35409;DHT22;34503;45.296;9.514;2023-09-12T00:12:14;26.40;76.60
35409;DHT22;34503;45.296;9.514;2023-09-12T00:12:30;26.30;76.50
35409;DHT22;34503;45.296;9.514;2023-09-12T00:12:45;26.40;76.60
35409;DHT22;34503;45.296;9.514;2023-09-12T00:12:59;26.30;76.40
35409;DHT22;34503;45.296;9.514;2023-09-12T00:13:15;26.40;76.60
35409;DHT22;34503;45.296;9.514;2023-09-12T00:13:30;26.30;76.60
35409;DHT22;34503;45.296;9.514;2023-09-12T00:13:45;26.40;76.60
35409;DHT22;34503;45.296;9.514;2023-09-12T00:14:00;26.40;76.70
35409;DHT22;34503;45.296;9.514;2023-09-12T00:14:15;26.40;76.70
35409;DHT22;34503;45.296;9.514;2023-09-12T00:14:31;26.40;76.70
35409;DHT22;34503;45.296;9.514;2023-09-12T00:14:46;26.30;76.70
35409;DHT22;34503;45.296;9.514;2023-09-12T00:15:00;26.40;76.70
35409;DHT22;34503;45.296;9.514;2023-09-12T00:15:18;26.40;76.70
35409;DHT22;34503;45.296;9.514;2023-09-12T00:15:53;26.30;76.30
35409;DHT22;34503;45.296;9.514;2023-09-12T00:16:08;26.30;76.80
35409;DHT22;34503;45.296;9.514;2023-09-12T00:16:26;26.30;77.00
35409;DHT22;34503;45.296;9.514;2023-09-12T00:16:41;26.30;77.10
35409;DHT22;34503;45.296;9.514;2023-09-12T00:16:56;26.30;76.60
35409;DHT22;34503;45.296;9.514;2023-09-12T00:17:10;26.30;76.80
35409;DHT22;34503;45.296;9.514;2023-09-12T00:17:25;26.30;76.80
35409;DHT22;34503;45.296;9.514;2023-09-12T00:17:41;26.30;76.80
35409;DHT22;34503;45.296;9.514;2023-09-12T00:17:56;26.30;76.70
35409;DHT22;34503;45.296;9.514;2023-09-12T00:18:10;26.30;76.60
35409;DHT22;34503;45.296;9.514;2023-09-12T00:18:25;26.30;76.80
35409;DHT22;34503;45.296;9.514;2023-09-12T00:18:40;26.30;76.90
35409;DHT22;34503;45.296;9.514;2023-09-12T00:18:56;26.30;76.60
35409;DHT22;34503;45.296;9.514;2023-09-12T00:19:11;26.30;77.00
35409;DHT22;34503;45.296;9.514;2023-09-12T00:19:26;26.30;77.00
35409;DHT22;34503;45.296;9.514;2023-09-12T00:19:59;26.30;77.20
35409;DHT22;34503;45.296;9.514;2023-09-12T00:20:14;26.30;77.00
35409;DHT22;34503;45.296;9.514;2023-09-12T00:20:29;26.30;76.90
35409;DHT22;34503;45.296;9.514;2023-09-12T00:20:44;26.30;77.10
35409;DHT22;34503;45.296;9.514;2023-09-12T00:20:59;26.30;77.00
35409;DHT22;34503;45.296;9.514;2023-09-12T00:21:15;26.30;77.20
35409;DHT22;34503;45.296;9.514;2023-09-12T00:21:29;26.30;77.40
35409;DHT22;34503;45.296;9.514;2023-09-12T00:21:44;26.30;77.60
35409;DHT22;34503;45.296;9.514;2023-09-12T00:21:59;26.30;77.20
35409;DHT22;34503;45.296;9.514;2023-09-12T00:22:14;26.30;77.20
35409;DHT22;34503;45.296;9.514;2023-09-12T00:22:29;26.30;77.40
35409;DHT22;34503;45.296;9.514;2023-09-12T00:22:43;26.30;77.30
35409;DHT22;34503;45.296;9.514;2023-09-12T00:22:58;26.30;77.30
35409;DHT22;34503;45.296;9.514;2023-09-12T00:23:13;26.30;77.70
35409;DHT22;34503;45.296;9.514;2023-09-12T00:23:28;26.30;77.60
35409;DHT22;34503;45.296;9.514;2023-09-12T00:23:43;26.30;77.60
35409;DHT22;34503;45.296;9.514;2023-09-12T00:23:58;26.30;77.90
35409;DHT22;34503;45.296;9.514;2023-09-12T00:24:13;26.30;77.90
35409;DHT22;34503;45.296;9.514;2023-09-12T00:24:28;26.30;78.00
35409;DHT22;34503;45.296;9.514;2023-09-12T00:24:43;26.20;78.00
35409;DHT22;34503;45.296;9.514;2023-09-12T00:24:57;26.20;78.10
35409;DHT22;34503;45.296;9.514;2023-09-12T00:25:12;26.20;78.00
35409;DHT22;34503;45.296;9.514;2023-09-12T00:25:27;26.30;78.00
35409;DHT22;34503;45.296;9.514;2023-09-12T00:25:42;26.20;78.00
35409;DHT22;34503;45.296;9.514;2023-09-12T00:25:57;26.20;78.10
35409;DHT22;34503;45.296;9.514;2023-09-12T00:26:12;26.20;78.20
35409;DHT22;34503;45.296;9.514;2023-09-12T00:26:27;26.20;78.20
35409;DHT22;34503;45.296;9.514;2023-09-12T00:26:44;26.20;78.30
35409;DHT22;34503;45.296;9.514;2023-09-12T00:26:59;26.20;78.20
35409;DHT22;34503;45.296;9.514;2023-09-12T00:27:14;26.20;78.20
35409;DHT22;34503;45.296;9.514;2023-09-12T00:27:29;26.20;78.30
35409;DHT22;34503;45.296;9.514;2023-09-12T00:27:44;26.20;78.50
35409;DHT22;34503;45.296;9.514;2023-09-12T00:27:58;26.20;79.10
35409;DHT22;34503;45.296;9.514;2023-09-12T00:28:13;26.20;78.60
35409;DHT22;34503;45.296;9.514;2023-09-12T00:28:28;26.20;78.60
35409;DHT22;34503;45.296;9.514;2023-09-12T00:28:43;26.10;78.60
35409;DHT22;34503;45.296;9.514;2023-09-12T00:28:58;26.10;78.40
35409;DHT22;34503;45.296;9.514;2023-09-12T00:29:13;26.10;78.50
35409;DHT22;34503;45.296;9.514;2023-09-12T00:29:29;26.10;78.70
35409;DHT22;34503;45.296;9.514;2023-09-12T00:29:43;26.10;78.50
35409;DHT22;34503;45.296;9.514;2023-09-12T00:29:58;26.10;78.60
35409;DHT22;34503;45.296;9.514;2023-09-12T00:30:14;26.20;78.60
35409;DHT22;34503;45.296;9.514;2023-09-12T00:30:29;26.10;78.50
35409;DHT22;34503;45.296;9.514;2023-09-12T00:30:44;26.10;78.50
35409;DHT22;34503;45.296;9.514;2023-09-12T00:30:59;26.10;78.60
35409;DHT22;34503;45.296;9.514;2023-09-12T00:31:13;26.10;78.60
35409;DHT22;34503;45.296;9.514;2023-09-12T00:31:28;26.10;78.70
35409;DHT22;34503;45.296;9.514;2023-09-12T00:31:43;26.10;78.80
35409;DHT22;34503;45.296;9.514;2023-09-12T00:31:58;26.10;78.90
35409;DHT22;34503;45.296;9.514;2023-09-12T00:32:13;26.10;78.60
35409;DHT22;34503;45.296;9.514;2023-09-12T00:32:28;26.10;78.30
35409;DHT22;34503;45.296;9.514;2023-09-12T00:32:42;26.10;78.30
35409;DHT22;34503;45.296;9.514;2023-09-12T00:32:57;26.10;79.20
35409;DHT22;34503;45.296;9.514;2023-09-12T00:33:13;26.10;79.40
35409;DHT22;34503;45.296;9.514;2023-09-12T00:33:28;26.10;78.90
35409;DHT22;34503;45.296;9.514;2023-09-12T00:33:43;26.10;79.00
35409;DHT22;34503;45.296;9.514;2023-09-12T00:33:58;26.10;79.00
35409;DHT22;34503;45.296;9.514;2023-09-12T00:34:18;26.10;79.20
35409;DHT22;34503;45.296;9.514;2023-09-12T00:34:33;26.10;79.10
35409;DHT22;34503;45.296;9.514;2023-09-12T00:34:48;26.10;79.20
35409;DHT22;34503;45.296;9.514;2023-09-12T00:35:03;26.10;79.20
35409;DHT22;34503;45.296;9.514;2023-09-12T00:35:18;26.10;79.00
35409;DHT22;34503;45.296;9.514;2023-09-12T00:35:33;26.10;78.90
35409;DHT22;34503;45.296;9.514;2023-09-12T00:35:48;26.10;79.00
35409;DHT22;34503;45.296;9.514;2023-09-12T00:36:03;26.10;79.00
35409;DHT22;34503;45.296;9.514;2023-09-12T00:36:18;26.10;78.90
35409;DHT22;34503;45.296;9.514;2023-09-12T00:36:33;26.10;79.00
35409;DHT22;34503;45.296;9.514;2023-09-12T00:36:47;26.10;79.00
35409;DHT22;34503;45.296;9.514;2023-09-12T00:37:02;26.10;79.20
35409;DHT22;34503;45.296;9.514;2023-09-12T00:37:17;26.00;79.10
35409;DHT22;34503;45.296;9.514;2023-09-12T00:37:32;26.10;79.10
35409;DHT22;34503;45.296;9.514;2023-09-12T00:37:47;26.10;79.40
35409;DHT22;34503;45.296;9.514;2023-09-12T00:38:02;26.10;79.40
35409;DHT22;34503;45.296;9.514;2023-09-12T00:38:18;26.00;79.30
35409;DHT22;34503;45.296;9.514;2023-09-12T00:38:32;26.00;79.30
35409;DHT22;34503;45.296;9.514;2023-09-12T00:38:47;26.00;79.20
35409;DHT22;34503;45.296;9.514;2023-09-12T00:39:02;26.10;79.20
35409;DHT22;34503;45.296;9.514;2023-09-12T00:39:17;26.10;79.20
35409;DHT22;34503;45.296;9.514;2023-09-12T00:39:32;26.00;79.40
35409;DHT22;34503;45.296;9.514;2023-09-12T00:39:47;26.00;79.60
35409;DHT22;34503;45.296;9.514;2023-09-12T00:40:02;26.00;79.70
35409;DHT22;34503;45.296;9.514;2023-09-12T00:40:17;26.00;79.60
35409;DHT22;34503;45.296;9.514;2023-09-12T00:40:32;26.00;79.70
35409;DHT22;34503;45.296;9.514;2023-09-12T00:40:47;26.00;79.60
35409;DHT22;34503;45.296;9.514;2023-09-12T00:41:02;26.00;79.70
35409;DHT22;34503;45.296;9.514;2023-09-12T00:41:17;26.00;79.80
35409;DHT22;34503;45.296;9.514;2023-09-12T00:41:32;26.00;79.30
35409;DHT22;34503;45.296;9.514;2023-09-12T00:41:47;26.00;79.60
35409;DHT22;34503;45.296;9.514;2023-09-12T00:42:02;26.00;80.10
35409;DHT22;34503;45.296;9.514;2023-09-12T00:42:17;26.00;79.40
35409;DHT22;34503;45.296;9.514;2023-09-12T00:42:32;26.00;79.80
35409;DHT22;34503;45.296;9.514;2023-09-12T00:42:46;26.00;79.70
35409;DHT22;34503;45.296;9.514;2023-09-12T00:43:01;26.00;79.70
35409;DHT22;34503;45.296;9.514;2023-09-12T00:43:17;26.00;79.70
35409;DHT22;34503;45.296;9.514;2023-09-12T00:43:32;26.00;79.80
35409;DHT22;34503;45.296;9.514;2023-09-12T00:43:46;26.00;79.80
35409;DHT22;34503;45.296;9.514;2023-09-12T00:44:01;26.00;79.90
35409;DHT22;34503;45.296;9.514;2023-09-12T00:44:16;26.00;80.00
35409;DHT22;34503;45.296;9.514;2023-09-12T00:44:31;26.00;79.90
35409;DHT22;34503;45.296;9.514;2023-09-12T00:44:46;25.90;79.90
35409;DHT22;34503;45.296;9.514;2023-09-12T00:45:01;26.00;80.00
35409;DHT22;34503;45.296;9.514;2023-09-12T00:45:15;25.90;79.90
35409;DHT22;34503;45.296;9.514;2023-09-12T00:45:30;26.00;80.00
35409;DHT22;34503;45.296;9.514;2023-09-12T00:45:45;25.90;80.00
35409;DHT22;34503;45.296;9.514;2023-09-12T00:46:00;26.00;80.20
35409;DHT22;34503;45.296;9.514;2023-09-12T00:46:19;25.90;80.10
35409;DHT22;34503;45.296;9.514;2023-09-12T00:46:36;25.90;80.00
35409;DHT22;34503;45.296;9.514;2023-09-12T00:46:51;25.90;79.90
35409;DHT22;34503;45.296;9.514;2023-09-12T00:47:07;25.90;80.00
35409;DHT22;34503;45.296;9.514;2023-09-12T00:47:23;25.90;80.00
35409;DHT22;34503;45.296;9.514;2023-09-12T00:47:38;25.90;80.00
35409;DHT22;34503;45.296;9.514;2023-09-12T00:47:53;25.90;80.00
35409;DHT22;34503;45.296;9.514;2023-09-12T00:48:08;25.90;80.10
35409;DHT22;34503;45.296;9.514;2023-09-12T00:48:23;25.90;80.20
35409;DHT22;34503;45.296;9.514;2023-09-12T00:48:39;25.90;80.10
35409;DHT22;34503;45.296;9.514;2023-09-12T00:48:54;25.90;80.30
35409;DHT22;34503;45.296;9.514;2023-09-12T00:49:10;25.90;80.20
35409;DHT22;34503;45.296;9.514;2023-09-12T00:49:25;25.90;80.20
35409;DHT22;34503;45.296;9.514;2023-09-12T00:49:41;25.90;80.10
35409;DHT22;34503;45.296;9.514;2023-09-12T00:49:56;25.90;80.20
